sensor_id;sensor_type;location;lat;lon;timestamp;temperature;humidity
41924;DHT22;27613;48.116;11.656;2023-07-22T00:01:23;14.00;99.90
41924;DHT22;27613;48.116;11.656;2023-07-22T00:03:49;14.10;99.90
41924;DHT22;27613;48.116;11.656;2023-07-22T00:06:14;14.00;99.90
41924;DHT22;27613;48.116;11.656;2023-07-22T00:08:40;13.90;99.90
41924;DHT22;27613;48.116;11.656;2023-07-22T00:11:06;13.90;99.90
41924;DHT22;27613;48.116;11.656;2023-07-22T00:13:32;13.80;99.90
41924;DHT22;27613;48.116;11.656;2023-07-22T00:15:58;13.80;99.90
41924;DHT22;27613;48.116;11.656;2023-07-22T00:18:29;13.70;99.90
41924;DHT22;27613;48.116;11.656;2023-07-22T00:20:56;13.70;99.90
41924;DHT22;27613;48.116;11.656;2023-07-22T00:23:22;13.70;99.90
41924;DHT22;27613;48.116;11.656;2023-07-22T00:25:48;13.60;99.90
41924;DHT22;27613;48.116;11.656;2023-07-22T00:28:13;13.60;99.90
41924;DHT22;27613;48.116;11.656;2023-07-22T00:30:39;13.50;99.90
41924;DHT22;27613;48.116;11.656;2023-07-22T00:33:05;13.50;99.90
41924;DHT22;27613;48.116;11.656;2023-07-22T00:35:31;13.50;99.90
41924;DHT22;27613;48.116;11.656;2023-07-22T00:37:57;13.50;99.90
41924;DHT22;27613;48.116;11.656;2023-07-22T00:40:23;13.40;99.90
41924;DHT22;27613;48.116;11.656;2023-07-22T00:42:49;13.50;99.90
41924;DHT22;27613;48.116;11.656;2023-07-22T00:45:14;13.50;99.90
41924;DHT22;27613;48.116;11.656;2023-07-22T00:47:41;13.40;99.90
41924;DHT22;27613;48.116;11.656;2023-07-22T00:50:07;13.40;99.90
41924;DHT22;27613;48.116;11.656;2023-07-22T00:52:34;13.40;99.90
41924;DHT22;27613;48.116;11.656;2023-07-22T00:55:00;13.40;99.90
41924;DHT22;27613;48.116;11.656;2023-07-22T00:57:26;13.50;99.90
41924;DHT22;27613;48.116;11.656;2023-07-22T00:59:52;13.50;99.90
41924;DHT22;27613;48.116;11.656;2023-07-22T01:02:18;13.50;99.90
41924;DHT22;27613;48.116;11.656;2023-07-22T01:04:44;13.40;99.90
41924;DHT22;27613;48.116;11.656;2023-07-22T01:07:11;13.50;99.90
41924;DHT22;27613;48.116;11.656;2023-07-22T01:09:38;13.50;99.90
41924;DHT22;27613;48.116;11.656;2023-07-22T01:12:04;13.50;99.90
41924;DHT22;27613;48.116;11.656;2023-07-22T01:14:33;13.30;99.90
41924;DHT22;27613;48.116;11.656;2023-07-22T01:17:01;13.20;99.90
41924;DHT22;27613;48.116;11.656;2023-07-22T01:19:27;13.20;99.90
41924;DHT22;27613;48.116;11.656;2023-07-22T01:21:53;13.10;99.90
41924;DHT22;27613;48.116;11.656;2023-07-22T01:24:21;13.10;99.90
41924;DHT22;27613;48.116;11.656;2023-07-22T01:26:47;13.00;99.90
41924;DHT22;27613;48.116;11.656;2023-07-22T01:29:13;13.00;99.90
41924;DHT22;27613;48.116;11.656;2023-07-22T01:31:39;13.00;99.90
41924;DHT22;27613;48.116;11.656;2023-07-22T01:34:05;13.00;99.90
41924;DHT22;27613;48.116;11.656;2023-07-22T01:36:31;13.00;99.90
41924;DHT22;27613;48.116;11.656;2023-07-22T01:38:56;13.00;99.90
41924;DHT22;27613;48.116;11.656;2023-07-22T01:41:22;13.10;99.90
41924;DHT22;27613;48.116;11.656;2023-07-22T01:43:48;13.00;99.90
41924;DHT22;27613;48.116;11.656;2023-07-22T01:46:14;13.10;99.90
41924;DHT22;27613;48.116;11.656;2023-07-22T01:48:39;13.10;99.90
41924;DHT22;27613;48.116;11.656;2023-07-22T01:51:05;13.20;99.90
41924;DHT22;27613;48.116;11.656;2023-07-22T01:53:31;13.10;99.90
41924;DHT22;27613;48.116;11.656;2023-07-22T01:55:57;13.20;99.90
41924;DHT22;27613;48.116;11.656;2023-07-22T01:58:22;13.20;99.90
41924;DHT22;27613;48.116;11.656;2023-07-22T02:00:51;13.20;99.90
41924;DHT22;27613;48.116;11.656;2023-07-22T02:03:17;13.20;99.90
41924;DHT22;27613;48.116;11.656;2023-07-22T02:05:42;13.30;99.90
41924;DHT22;27613;48.116;11.656;2023-07-22T02:08:08;13.40;99.90
41924;DHT22;27613;48.116;11.656;2023-07-22T02:10:35;13.40;99.90
41924;DHT22;27613;48.116;11.656;2023-07-22T02:13:01;13.40;99.90
41924;DHT22;27613;48.116;11.656;2023-07-22T02:15:28;13.40;99.90
41924;DHT22;27613;48.116;11.656;2023-07-22T02:17:54;13.40;99.90
41924;DHT22;27613;48.116;11.656;2023-07-22T02:20:20;13.40;99.90
41924;DHT22;27613;48.116;11.656;2023-07-22T02:22:46;13.30;99.90
41924;DHT22;27613;48.116;11.656;2023-07-22T02:25:11;13.20;99.90
41924;DHT22;27613;48.116;11.656;2023-07-22T02:27:37;13.20;99.90
41924;DHT22;27613;48.116;11.656;2023-07-22T02:30:04;13.10;99.90
41924;DHT22;27613;48.116;11.656;2023-07-22T02:32:30;13.00;99.90
41924;DHT22;27613;48.116;11.656;2023-07-22T02:34:56;13.00;99.90
41924;DHT22;27613;48.116;11.656;2023-07-22T02:37:21;12.90;99.90
41924;DHT22;27613;48.116;11.656;2023-07-22T02:39:47;13.00;99.90
41924;DHT22;27613;48.116;11.656;2023-07-22T02:42:12;12.90;99.90
41924;DHT22;27613;48.116;11.656;2023-07-22T02:44:38;12.90;99.90
41924;DHT22;27613;48.116;11.656;2023-07-22T02:47:03;12.90;99.90
41924;DHT22;27613;48.116;11.656;2023-07-22T02:49:29;12.90;99.90
41924;DHT22;27613;48.116;11.656;2023-07-22T02:51:54;13.00;99.90
41924;DHT22;27613;48.116;11.656;2023-07-22T02:54:20;13.10;99.90
41924;DHT22;27613;48.116;11.656;2023-07-22T02:56:46;13.10;99.90
41924;DHT22;27613;48.116;11.656;2023-07-22T02:59:11;13.20;99.90
41924;DHT22;27613;48.116;11.656;2023-07-22T03:01:37;13.30;99.90
41924;DHT22;27613;48.116;11.656;2023-07-22T03:04:02;13.30;99.90
41924;DHT22;27613;48.116;11.656;2023-07-22T03:06:29;13.20;99.90
41924;DHT22;27613;48.116;11.656;2023-07-22T03:08:55;13.10;99.90
41924;DHT22;27613;48.116;11.656;2023-07-22T03:11:23;13.10;99.90
41924;DHT22;27613;48.116;11.656;2023-07-22T03:13:50;13.00;99.90
41924;DHT22;27613;48.116;11.656;2023-07-22T03:16:16;12.90;99.90
41924;DHT22;27613;48.116;11.656;2023-07-22T03:18:42;12.90;99.90
41924;DHT22;27613;48.116;11.656;2023-07-22T03:21:08;12.80;99.90
41924;DHT22;27613;48.116;11.656;2023-07-22T03:23:34;12.90;99.90
41924;DHT22;27613;48.116;11.656;2023-07-22T03:26:00;12.90;99.90
41924;DHT22;27613;48.116;11.656;2023-07-22T03:28:26;12.90;99.90
41924;DHT22;27613;48.116;11.656;2023-07-22T03:30:51;12.90;99.90
41924;DHT22;27613;48.116;11.656;2023-07-22T03:33:18;12.90;99.90
41924;DHT22;27613;48.116;11.656;2023-07-22T03:35:44;12.80;99.90
41924;DHT22;27613;48.116;11.656;2023-07-22T03:38:09;12.80;99.90
41924;DHT22;27613;48.116;11.656;2023-07-22T03:40:35;12.80;99.90
41924;DHT22;27613;48.116;11.656;2023-07-22T03:43:01;12.80;99.90
41924;DHT22;27613;48.116;11.656;2023-07-22T03:45:26;12.90;99.90
41924;DHT22;27613;48.116;11.656;2023-07-22T03:47:56;12.90;99.90
41924;DHT22;27613;48.116;11.656;2023-07-22T03:50:22;12.90;99.90
41924;DHT22;27613;48.116;11.656;2023-07-22T03:52:47;12.90;99.90
41924;DHT22;27613;48.116;11.656;2023-07-22T03:55:13;12.90;99.90
41924;DHT22;27613;48.116;11.656;2023-07-22T03:57:38;12.90;99.90
41924;DHT22;27613;48.116;11.656;2023-07-22T04:00:06;13.00;99.90
41924;DHT22;27613;48.116;11.656;2023-07-22T04:02:35;12.90;99.90
41924;DHT22;27613;48.116;11.656;2023-07-22T04:05:00;13.00;99.90
41924;DHT22;27613;48.116;11.656;2023-07-22T04:07:26;13.10;99.90
41924;DHT22;27613;48.116;11.656;2023-07-22T04:09:51;13.20;99.90
41924;DHT22;27613;48.116;11.656;2023-07-22T04:12:17;13.20;99.90
41924;DHT22;27613;48.116;11.656;2023-07-22T04:14:43;13.20;99.90
41924;DHT22;27613;48.116;11.656;2023-07-22T04:17:08;13.20;99.90
41924;DHT22;27613;48.116;11.656;2023-07-22T04:19:34;13.20;99.90
41924;DHT22;27613;48.116;11.656;2023-07-22T04:22:00;13.20;99.90
41924;DHT22;27613;48.116;11.656;2023-07-22T04:24:30;13.20;99.90
41924;DHT22;27613;48.116;11.656;2023-07-22T04:26:56;13.20;99.90
41924;DHT22;27613;48.116;11.656;2023-07-22T04:29:22;13.20;99.90
41924;DHT22;27613;48.116;11.656;2023-07-22T04:31:47;13.30;99.90
41924;DHT22;27613;48.116;11.656;2023-07-22T04:34:13;13.30;99.90
41924;DHT22;27613;48.116;11.656;2023-07-22T04:36:38;13.40;99.90
41924;DHT22;27613;48.116;11.656;2023-07-22T04:39:04;13.50;99.90
41924;DHT22;27613;48.116;11.656;2023-07-22T04:41:38;13.50;99.90
41924;DHT22;27613;48.116;11.656;2023-07-22T04:44:04;13.60;99.90
41924;DHT22;27613;48.116;11.656;2023-07-22T04:46:30;13.70;99.90
41924;DHT22;27613;48.116;11.656;2023-07-22T04:48:56;13.70;99.90
41924;DHT22;27613;48.116;11.656;2023-07-22T04:51:23;13.80;99.90
41924;DHT22;27613;48.116;11.656;2023-07-22T04:53:49;13.90;99.90
41924;DHT22;27613;48.116;11.656;2023-07-22T04:56:14;13.90;99.90
41924;DHT22;27613;48.116;11.656;2023-07-22T04:58:40;14.00;99.90
41924;DHT22;27613;48.116;11.656;2023-07-22T05:01:05;14.00;99.90
41924;DHT22;27613;48.116;11.656;2023-07-22T05:03:31;14.10;99.90
41924;DHT22;27613;48.116;11.656;2023-07-22T05:05:57;14.10;99.90
41924;DHT22;27613;48.116;11.656;2023-07-22T05:08:23;14.10;99.90
41924;DHT22;27613;48.116;11.656;2023-07-22T05:10:49;14.10;99.90
41924;DHT22;27613;48.116;11.656;2023-07-22T05:13:14;14.20;99.90
41924;DHT22;27613;48.116;11.656;2023-07-22T05:15:40;14.30;99.90
41924;DHT22;27613;48.116;11.656;2023-07-22T05:18:05;14.40;99.90
41924;DHT22;27613;48.116;11.656;2023-07-22T05:20:31;14.40;99.90
41924;DHT22;27613;48.116;11.656;2023-07-22T05:22:57;14.50;99.90
41924;DHT22;27613;48.116;11.656;2023-07-22T05:25:23;14.50;99.90
41924;DHT22;27613;48.116;11.656;2023-07-22T05:27:49;14.60;99.90
41924;DHT22;27613;48.116;11.656;2023-07-22T05:30:15;14.70;99.90
41924;DHT22;27613;48.116;11.656;2023-07-22T05:32:40;14.70;99.90
41924;DHT22;27613;48.116;11.656;2023-07-22T05:35:06;14.80;99.90
41924;DHT22;27613;48.116;11.656;2023-07-22T05:37:32;14.90;99.90
41924;DHT22;27613;48.116;11.656;2023-07-22T05:39:58;15.00;99.90
41924;DHT22;27613;48.116;11.656;2023-07-22T05:42:24;15.10;99.90
41924;DHT22;27613;48.116;11.656;2023-07-22T05:44:49;15.20;99.90
41924;DHT22;27613;48.116;11.656;2023-07-22T05:47:15;15.40;99.90
41924;DHT22;27613;48.116;11.656;2023-07-22T05:49:40;15.50;99.90
41924;DHT22;27613;48.116;11.656;2023-07-22T05:52:06;15.40;99.90
41924;DHT22;27613;48.116;11.656;2023-07-22T05:54:32;15.50;99.90
41924;DHT22;27613;48.116;11.656;2023-07-22T05:56:58;15.40;99.90
41924;DHT22;27613;48.116;11.656;2023-07-22T05:59:23;15.60;99.90
41924;DHT22;27613;48.116;11.656;2023-07-22T06:01:49;15.60;99.90
41924;DHT22;27613;48.116;11.656;2023-07-22T06:04:14;15.70;99.90
41924;DHT22;27613;48.116;11.656;2023-07-22T06:06:40;15.70;99.90
41924;DHT22;27613;48.116;11.656;2023-07-22T06:09:05;15.80;99.90
41924;DHT22;27613;48.116;11.656;2023-07-22T06:11:31;15.90;99.90
41924;DHT22;27613;48.116;11.656;2023-07-22T06:13:56;16.00;99.90
41924;DHT22;27613;48.116;11.656;2023-07-22T06:16:22;16.10;99.90
41924;DHT22;27613;48.116;11.656;2023-07-22T06:18:48;16.20;99.90
41924;DHT22;27613;48.116;11.656;2023-07-22T06:21:13;16.20;99.90
41924;DHT22;27613;48.116;11.656;2023-07-22T06:23:39;16.10;99.90
41924;DHT22;27613;48.116;11.656;2023-07-22T06:26:04;16.10;99.90
41924;DHT22;27613;48.116;11.656;2023-07-22T06:28:30;16.00;99.90
41924;DHT22;27613;48.116;11.656;2023-07-22T06:30:56;16.10;99.90
41924;DHT22;27613;48.116;11.656;2023-07-22T06:33:22;16.20;99.90
41924;DHT22;27613;48.116;11.656;2023-07-22T06:35:48;16.40;99.90
41924;DHT22;27613;48.116;11.656;2023-07-22T06:38:13;16.40;99.90
41924;DHT22;27613;48.116;11.656;2023-07-22T06:40:39;16.50;99.90
41924;DHT22;27613;48.116;11.656;2023-07-22T06:43:04;16.70;99.90
41924;DHT22;27613;48.116;11.656;2023-07-22T06:45:31;16.90;99.90
41924;DHT22;27613;48.116;11.656;2023-07-22T06:47:57;17.20;99.90
41924;DHT22;27613;48.116;11.656;2023-07-22T06:50:23;17.40;99.90
41924;DHT22;27613;48.116;11.656;2023-07-22T06:52:49;17.60;99.90
41924;DHT22;27613;48.116;11.656;2023-07-22T06:55:14;17.80;99.90
41924;DHT22;27613;48.116;11.656;2023-07-22T06:57:40;17.80;99.90
41924;DHT22;27613;48.116;11.656;2023-07-22T07:00:06;17.80;99.90
41924;DHT22;27613;48.116;11.656;2023-07-22T07:02:32;17.70;99.90
41924;DHT22;27613;48.116;11.656;2023-07-22T07:04:57;18.00;99.90
41924;DHT22;27613;48.116;11.656;2023-07-22T07:07:23;18.30;99.90
41924;DHT22;27613;48.116;11.656;2023-07-22T07:09:48;18.50;99.90
41924;DHT22;27613;48.116;11.656;2023-07-22T07:12:14;18.50;99.90
41924;DHT22;27613;48.116;11.656;2023-07-22T07:14:40;18.50;99.90
41924;DHT22;27613;48.116;11.656;2023-07-22T07:17:06;18.40;99.90
41924;DHT22;27613;48.116;11.656;2023-07-22T07:19:31;18.60;99.90
41924;DHT22;27613;48.116;11.656;2023-07-22T07:21:57;18.60;99.90
41924;DHT22;27613;48.116;11.656;2023-07-22T07:24:22;18.70;99.90
41924;DHT22;27613;48.116;11.656;2023-07-22T07:26:48;18.60;99.90
41924;DHT22;27613;48.116;11.656;2023-07-22T07:29:14;18.70;99.90
41924;DHT22;27613;48.116;11.656;2023-07-22T07:31:40;18.70;97.50
41924;DHT22;27613;48.116;11.656;2023-07-22T07:34:06;18.60;98.40
41924;DHT22;27613;48.116;11.656;2023-07-22T07:36:33;18.60;96.40
41924;DHT22;27613;48.116;11.656;2023-07-22T07:38:58;18.60;94.90
41924;DHT22;27613;48.116;11.656;2023-07-22T07:41:24;18.60;94.60
41924;DHT22;27613;48.116;11.656;2023-07-22T07:43:50;18.50;95.30
41924;DHT22;27613;48.116;11.656;2023-07-22T07:46:27;18.50;95.70
41924;DHT22;27613;48.116;11.656;2023-07-22T07:48:53;18.30;97.50
41924;DHT22;27613;48.116;11.656;2023-07-22T07:51:21;18.10;98.40
41924;DHT22;27613;48.116;11.656;2023-07-22T07:53:47;18.20;97.60
41924;DHT22;27613;48.116;11.656;2023-07-22T07:56:13;18.40;96.10
41924;DHT22;27613;48.116;11.656;2023-07-22T07:58:39;18.40;93.70
41924;DHT22;27613;48.116;11.656;2023-07-22T08:01:05;18.40;93.20
41924;DHT22;27613;48.116;11.656;2023-07-22T08:03:31;18.40;94.30
41924;DHT22;27613;48.116;11.656;2023-07-22T08:05:57;18.50;94.10
41924;DHT22;27613;48.116;11.656;2023-07-22T08:08:23;18.50;93.40
41924;DHT22;27613;48.116;11.656;2023-07-22T08:11:03;18.60;93.90
41924;DHT22;27613;48.116;11.656;2023-07-22T08:13:30;18.70;92.90
41924;DHT22;27613;48.116;11.656;2023-07-22T08:15:57;18.90;93.80
41924;DHT22;27613;48.116;11.656;2023-07-22T08:18:23;19.10;92.90
41924;DHT22;27613;48.116;11.656;2023-07-22T08:20:50;19.10;93.60
41924;DHT22;27613;48.116;11.656;2023-07-22T08:23:16;19.20;92.60
41924;DHT22;27613;48.116;11.656;2023-07-22T08:25:41;19.20;89.00
41924;DHT22;27613;48.116;11.656;2023-07-22T08:28:07;19.40;90.00
41924;DHT22;27613;48.116;11.656;2023-07-22T08:30:33;19.30;88.20
41924;DHT22;27613;48.116;11.656;2023-07-22T08:32:58;19.10;88.60
41924;DHT22;27613;48.116;11.656;2023-07-22T08:35:24;19.30;88.00
41924;DHT22;27613;48.116;11.656;2023-07-22T08:37:50;19.60;82.50
41924;DHT22;27613;48.116;11.656;2023-07-22T08:40:15;19.20;80.00
41924;DHT22;27613;48.116;11.656;2023-07-22T08:42:41;19.20;81.20
41924;DHT22;27613;48.116;11.656;2023-07-22T08:45:09;19.60;84.20
41924;DHT22;27613;48.116;11.656;2023-07-22T08:47:38;19.70;85.80
41924;DHT22;27613;48.116;11.656;2023-07-22T08:50:06;19.70;85.30
41924;DHT22;27613;48.116;11.656;2023-07-22T08:52:33;19.70;85.50
41924;DHT22;27613;48.116;11.656;2023-07-22T08:55:00;20.30;82.10
41924;DHT22;27613;48.116;11.656;2023-07-22T08:57:28;20.60;82.20
41924;DHT22;27613;48.116;11.656;2023-07-22T08:59:56;20.60;80.60
41924;DHT22;27613;48.116;11.656;2023-07-22T09:02:24;19.90;80.50
41924;DHT22;27613;48.116;11.656;2023-07-22T09:04:50;20.20;79.60
41924;DHT22;27613;48.116;11.656;2023-07-22T09:07:16;20.40;80.40
41924;DHT22;27613;48.116;11.656;2023-07-22T09:09:44;20.60;76.30
41924;DHT22;27613;48.116;11.656;2023-07-22T09:12:12;20.30;78.10
41924;DHT22;27613;48.116;11.656;2023-07-22T09:14:39;20.20;78.10
41924;DHT22;27613;48.116;11.656;2023-07-22T09:17:05;20.90;80.00
41924;DHT22;27613;48.116;11.656;2023-07-22T09:19:31;21.60;75.60
41924;DHT22;27613;48.116;11.656;2023-07-22T09:21:57;22.20;71.50
41924;DHT22;27613;48.116;11.656;2023-07-22T09:24:25;22.40;66.80
41924;DHT22;27613;48.116;11.656;2023-07-22T09:26:51;22.70;67.50
41924;DHT22;27613;48.116;11.656;2023-07-22T09:29:17;23.30;65.10
41924;DHT22;27613;48.116;11.656;2023-07-22T09:31:53;24.00;63.60
41924;DHT22;27613;48.116;11.656;2023-07-22T09:34:19;24.60;62.00
41924;DHT22;27613;48.116;11.656;2023-07-22T09:36:55;24.50;61.20
41924;DHT22;27613;48.116;11.656;2023-07-22T09:39:21;25.50;60.90
41924;DHT22;27613;48.116;11.656;2023-07-22T09:41:48;26.20;59.20
41924;DHT22;27613;48.116;11.656;2023-07-22T09:44:13;24.90;59.30
41924;DHT22;27613;48.116;11.656;2023-07-22T09:46:40;25.80;57.70
41924;DHT22;27613;48.116;11.656;2023-07-22T09:49:09;24.80;58.70
41924;DHT22;27613;48.116;11.656;2023-07-22T09:51:44;25.00;56.60
41924;DHT22;27613;48.116;11.656;2023-07-22T09:54:09;26.40;55.10
41924;DHT22;27613;48.116;11.656;2023-07-22T09:56:46;26.30;53.80
41924;DHT22;27613;48.116;11.656;2023-07-22T09:59:13;26.20;54.80
41924;DHT22;27613;48.116;11.656;2023-07-22T10:01:39;25.90;55.60
41924;DHT22;27613;48.116;11.656;2023-07-22T10:04:06;24.80;55.70
41924;DHT22;27613;48.116;11.656;2023-07-22T10:06:33;25.00;57.20
41924;DHT22;27613;48.116;11.656;2023-07-22T10:09:04;26.70;55.90
41924;DHT22;27613;48.116;11.656;2023-07-22T10:11:34;27.80;52.30
41924;DHT22;27613;48.116;11.656;2023-07-22T10:14:02;28.60;50.50
41924;DHT22;27613;48.116;11.656;2023-07-22T10:16:28;27.70;50.90
41924;DHT22;27613;48.116;11.656;2023-07-22T10:18:54;27.80;50.50
41924;DHT22;27613;48.116;11.656;2023-07-22T10:21:20;28.50;50.10
41924;DHT22;27613;48.116;11.656;2023-07-22T10:23:47;28.40;50.60
41924;DHT22;27613;48.116;11.656;2023-07-22T10:26:16;29.40;51.00
41924;DHT22;27613;48.116;11.656;2023-07-22T10:28:43;30.70;49.90
41924;DHT22;27613;48.116;11.656;2023-07-22T10:31:09;28.50;49.40
41924;DHT22;27613;48.116;11.656;2023-07-22T10:33:35;27.00;50.40
41924;DHT22;27613;48.116;11.656;2023-07-22T10:36:04;28.90;50.00
41924;DHT22;27613;48.116;11.656;2023-07-22T10:38:31;27.70;50.50
41924;DHT22;27613;48.116;11.656;2023-07-22T10:40:57;27.30;51.70
41924;DHT22;27613;48.116;11.656;2023-07-22T10:43:31;25.80;53.30
41924;DHT22;27613;48.116;11.656;2023-07-22T10:45:58;26.80;52.70
41924;DHT22;27613;48.116;11.656;2023-07-22T10:48:33;27.30;51.80
41924;DHT22;27613;48.116;11.656;2023-07-22T10:51:14;27.60;50.60
41924;DHT22;27613;48.116;11.656;2023-07-22T10:53:46;26.40;51.30
41924;DHT22;27613;48.116;11.656;2023-07-22T10:56:30;25.80;52.50
41924;DHT22;27613;48.116;11.656;2023-07-22T10:58:57;26.90;52.70
41924;DHT22;27613;48.116;11.656;2023-07-22T11:04:13;27.30;50.50
41924;DHT22;27613;48.116;11.656;2023-07-22T11:14:27;29.90;46.30
41924;DHT22;27613;48.116;11.656;2023-07-22T11:16:53;30.40;46.60
41924;DHT22;27613;48.116;11.656;2023-07-22T11:19:23;29.40;46.90
41924;DHT22;27613;48.116;11.656;2023-07-22T11:21:53;27.60;49.30
41924;DHT22;27613;48.116;11.656;2023-07-22T11:24:20;29.20;48.40
41924;DHT22;27613;48.116;11.656;2023-07-22T11:26:47;29.10;46.40
41924;DHT22;27613;48.116;11.656;2023-07-22T11:29:13;28.80;47.90
41924;DHT22;27613;48.116;11.656;2023-07-22T11:31:44;29.90;45.80
41924;DHT22;27613;48.116;11.656;2023-07-22T11:36:36;30.20;46.70
41924;DHT22;27613;48.116;11.656;2023-07-22T11:39:10;30.70;46.20
41924;DHT22;27613;48.116;11.656;2023-07-22T11:41:36;30.80;46.30
41924;DHT22;27613;48.116;11.656;2023-07-22T11:44:03;31.40;45.20
41924;DHT22;27613;48.116;11.656;2023-07-22T11:46:35;30.50;44.60
41924;DHT22;27613;48.116;11.656;2023-07-22T11:49:01;30.30;45.00
41924;DHT22;27613;48.116;11.656;2023-07-22T11:51:27;29.40;45.30
41924;DHT22;27613;48.116;11.656;2023-07-22T11:53:54;30.30;45.20
41924;DHT22;27613;48.116;11.656;2023-07-22T11:56:27;29.80;45.70
41924;DHT22;27613;48.116;11.656;2023-07-22T11:58:55;31.10;44.20
41924;DHT22;27613;48.116;11.656;2023-07-22T12:01:21;31.00;45.40
41924;DHT22;27613;48.116;11.656;2023-07-22T12:03:47;31.90;44.20
41924;DHT22;27613;48.116;11.656;2023-07-22T12:06:14;31.10;46.60
41924;DHT22;27613;48.116;11.656;2023-07-22T12:08:48;30.40;45.50
41924;DHT22;27613;48.116;11.656;2023-07-22T12:11:24;30.40;45.70
41924;DHT22;27613;48.116;11.656;2023-07-22T12:16:29;30.90;44.40
41924;DHT22;27613;48.116;11.656;2023-07-22T12:18:55;31.30;43.70
41924;DHT22;27613;48.116;11.656;2023-07-22T12:21:22;30.10;46.10
41924;DHT22;27613;48.116;11.656;2023-07-22T12:23:47;30.40;45.20
41924;DHT22;27613;48.116;11.656;2023-07-22T12:26:13;30.40;43.30
41924;DHT22;27613;48.116;11.656;2023-07-22T12:28:39;29.80;44.80
41924;DHT22;27613;48.116;11.656;2023-07-22T12:31:04;29.90;45.10
41924;DHT22;27613;48.116;11.656;2023-07-22T12:33:30;29.80;44.50
41924;DHT22;27613;48.116;11.656;2023-07-22T12:35:57;28.60;45.80
41924;DHT22;27613;48.116;11.656;2023-07-22T12:38:23;29.40;45.70
41924;DHT22;27613;48.116;11.656;2023-07-22T12:40:48;30.20;44.40
41924;DHT22;27613;48.116;11.656;2023-07-22T12:43:14;30.50;45.20
41924;DHT22;27613;48.116;11.656;2023-07-22T12:45:39;30.80;44.10
41924;DHT22;27613;48.116;11.656;2023-07-22T12:48:05;31.90;43.90
41924;DHT22;27613;48.116;11.656;2023-07-22T12:50:31;30.90;45.00
41924;DHT22;27613;48.116;11.656;2023-07-22T12:53:01;32.40;42.70
41924;DHT22;27613;48.116;11.656;2023-07-22T12:55:27;33.80;42.30
41924;DHT22;27613;48.116;11.656;2023-07-22T12:57:53;33.50;41.40
41924;DHT22;27613;48.116;11.656;2023-07-22T13:00:19;33.70;41.70
41924;DHT22;27613;48.116;11.656;2023-07-22T13:02:44;33.50;42.10
41924;DHT22;27613;48.116;11.656;2023-07-22T13:05:10;32.00;42.80
41924;DHT22;27613;48.116;11.656;2023-07-22T13:07:36;31.90;41.90
41924;DHT22;27613;48.116;11.656;2023-07-22T13:10:02;32.40;42.60
41924;DHT22;27613;48.116;11.656;2023-07-22T13:12:32;32.40;41.70
41924;DHT22;27613;48.116;11.656;2023-07-22T13:14:57;31.60;42.10
41924;DHT22;27613;48.116;11.656;2023-07-22T13:17:23;31.00;44.40
41924;DHT22;27613;48.116;11.656;2023-07-22T13:19:48;31.30;44.60
41924;DHT22;27613;48.116;11.656;2023-07-22T13:22:14;31.60;44.80
41924;DHT22;27613;48.116;11.656;2023-07-22T13:24:39;30.30;44.00
41924;DHT22;27613;48.116;11.656;2023-07-22T13:27:06;28.90;45.40
41924;DHT22;27613;48.116;11.656;2023-07-22T13:29:32;29.20;45.40
41924;DHT22;27613;48.116;11.656;2023-07-22T13:31:57;29.30;45.90
41924;DHT22;27613;48.116;11.656;2023-07-22T13:34:23;28.90;45.60
41924;DHT22;27613;48.116;11.656;2023-07-22T13:36:49;29.40;45.90
41924;DHT22;27613;48.116;11.656;2023-07-22T13:39:14;30.00;45.40
41924;DHT22;27613;48.116;11.656;2023-07-22T13:41:40;30.90;43.90
41924;DHT22;27613;48.116;11.656;2023-07-22T13:44:05;33.00;42.70
41924;DHT22;27613;48.116;11.656;2023-07-22T13:46:31;32.90;42.20
41924;DHT22;27613;48.116;11.656;2023-07-22T13:48:57;31.90;42.80
41924;DHT22;27613;48.116;11.656;2023-07-22T13:51:22;33.30;42.10
41924;DHT22;27613;48.116;11.656;2023-07-22T13:53:48;33.60;42.90
41924;DHT22;27613;48.116;11.656;2023-07-22T13:56:13;34.20;40.70
41924;DHT22;27613;48.116;11.656;2023-07-22T13:58:39;32.80;41.30
41924;DHT22;27613;48.116;11.656;2023-07-22T14:01:05;31.90;42.60
41924;DHT22;27613;48.116;11.656;2023-07-22T14:03:30;31.90;42.20
41924;DHT22;27613;48.116;11.656;2023-07-22T14:05:56;32.60;41.60
41924;DHT22;27613;48.116;11.656;2023-07-22T14:08:22;33.00;41.00
41924;DHT22;27613;48.116;11.656;2023-07-22T14:10:47;32.90;42.50
41924;DHT22;27613;48.116;11.656;2023-07-22T14:13:13;32.50;41.20
41924;DHT22;27613;48.116;11.656;2023-07-22T14:15:39;30.50;42.20
41924;DHT22;27613;48.116;11.656;2023-07-22T14:18:04;29.90;43.20
41924;DHT22;27613;48.116;11.656;2023-07-22T14:20:30;29.90;43.00
41924;DHT22;27613;48.116;11.656;2023-07-22T14:22:56;29.70;43.70
41924;DHT22;27613;48.116;11.656;2023-07-22T14:25:22;30.90;43.10
41924;DHT22;27613;48.116;11.656;2023-07-22T14:27:48;30.80;42.90
41924;DHT22;27613;48.116;11.656;2023-07-22T14:30:14;29.50;43.80
41924;DHT22;27613;48.116;11.656;2023-07-22T14:32:40;30.10;42.70
41924;DHT22;27613;48.116;11.656;2023-07-22T14:35:05;30.90;43.20
41924;DHT22;27613;48.116;11.656;2023-07-22T14:37:31;31.80;40.60
41924;DHT22;27613;48.116;11.656;2023-07-22T14:39:57;32.70;40.90
41924;DHT22;27613;48.116;11.656;2023-07-22T14:42:22;32.50;40.20
41924;DHT22;27613;48.116;11.656;2023-07-22T14:44:48;32.20;40.90
41924;DHT22;27613;48.116;11.656;2023-07-22T14:47:13;30.60;40.60
41924;DHT22;27613;48.116;11.656;2023-07-22T14:49:39;29.90;42.80
41924;DHT22;27613;48.116;11.656;2023-07-22T14:52:05;29.20;43.10
41924;DHT22;27613;48.116;11.656;2023-07-22T14:54:31;29.50;42.50
41924;DHT22;27613;48.116;11.656;2023-07-22T14:56:57;28.70;43.10
41924;DHT22;27613;48.116;11.656;2023-07-22T14:59:23;29.70;41.60
41924;DHT22;27613;48.116;11.656;2023-07-22T15:01:48;30.90;41.00
41924;DHT22;27613;48.116;11.656;2023-07-22T15:04:14;30.30;42.10
41924;DHT22;27613;48.116;11.656;2023-07-22T15:06:39;30.40;40.70
41924;DHT22;27613;48.116;11.656;2023-07-22T15:09:05;30.00;41.40
41924;DHT22;27613;48.116;11.656;2023-07-22T15:11:35;29.60;41.80
41924;DHT22;27613;48.116;11.656;2023-07-22T15:14:02;30.60;42.40
41924;DHT22;27613;48.116;11.656;2023-07-22T15:16:27;31.30;41.30
41924;DHT22;27613;48.116;11.656;2023-07-22T15:18:53;31.80;40.00
41924;DHT22;27613;48.116;11.656;2023-07-22T15:21:18;31.20;40.20
41924;DHT22;27613;48.116;11.656;2023-07-22T15:23:44;30.60;41.10
41924;DHT22;27613;48.116;11.656;2023-07-22T15:26:09;32.00;40.80